Delta Virtual Airport Information Service

Fresno Yosemite International Airport

ICAO: KFAT Country: United States
Latitude: 36.7762 Longitude: -119.718
Latest Arrival : SKW1397 (1E) (KSFO-KFAT) Latest Departure : DALJUMP (KFAT-KJFK)


WX CaptureLIVE
Data provided by noaa.gov | Fetched at 13:21:43

METAR : KFAT 241753Z 00000KT 9SM SCT035 19/04 A3000 RMK AO2 SLP155 FU SCT035 T01940044 10194 20122 50002

TAF : KFAT 241739Z 2418/2518 VRB03KT P6SM BKN200 FM242100 31005KT P6SM FEW250


Runway Data for KFAT
Data provided by openaviationdata.com

Runway ID Mag Var Hdg Length Elevation Surface ILS Freq ILS Id ILS Slope
11L 15 110° 9213 ft 336 ft Asphalt 111.3 IRPW 0
11R 15 110° 7203 ft 336 ft Asphalt -- -- --
29L 15 290° 7203 ft 336 ft Asphalt -- -- --
29R 15 290° 9213 ft 336 ft Asphalt 111.3 IFAT 3

Fresno Yosemite International Airport, United States
Use only for reference purposes



Not for navigational purposes.